Time;durP1;ratioP1;P1;durP2;ratioP2;P2;SDS_P1;SDS_P2;PMS_P1;PMS_P2;Temp;Humidity;BMP_temperature;BMP_pressure;BME280_temperature;BME280_humidity;BME280_pressure;Samples;Min_cycle;Max_cycle;Signal;HPM_P1;HPM_P2
2021/07/16 00:02:26;;;;;;;0.30;0.30;;;;;;;12.88;87.56;92508.16;6216246;23;20110;-92
2021/07/16 00:05:04;;;;;;;0.30;0.30;;;;;;;13.20;87.70;92558.91;6243374;23;20016;-91
2021/07/16 00:07:40;;;;;;;;;;;;;;;;;;;;;
2021/07/16 00:10:38;;;;;;;0.40;0.40;;;;;;;13.02;88.29;92531.75;6215973;23;20070;-91
2021/07/16 00:13:08;;;;;;;0.40;0.40;;;;;;;13.02;88.41;92523.84;6216318;23;20339;-92
2021/07/16 00:15:44;;;;;;;0.40;0.40;;;;;;;12.81;88.89;92492.81;6216132;23;20517;-90
2021/07/16 00:18:27;;;;;;;0.30;0.30;;;;;;;12.82;88.66;92498.84;6171778;23;20027;-92
2021/07/16 00:20:57;;;;;;;0.35;0.35;;;;;;;12.80;88.32;92490.47;6193177;23;20448;-90
2021/07/16 00:23:29;;;;;;;0.40;0.40;;;;;;;12.81;87.78;92492.03;6216767;23;20026;-92
2021/07/16 00:26:09;;;;;;;0.25;0.25;;;;;;;13.15;87.79;92545.88;6193965;23;20026;-91
2021/07/16 00:28:56;;;;;;;0.50;0.50;;;;;;;13.02;88.26;92531.75;6218850;23;20380;-91
2021/07/16 00:31:57;;;;;;;0.20;0.20;;;;;;;12.68;87.90;92481.28;6190987;23;20043;-91
2021/07/16 00:34:35;;;;;;;;;;;;;;;;;;;;;
2021/07/16 00:37:06;;;;;;;0.20;0.20;;;;;;;12.82;87.70;92501.47;6216467;23;20028;-91
2021/07/16 00:42:43;;;;;;;0.30;0.30;;;;;;;12.82;87.39;92490.97;6233414;23;20095;-92
2021/07/16 00:45:24;;;;;;;0.30;0.30;;;;;;;12.76;86.99;92486.91;6218078;23;20058;-91
2021/07/16 00:47:57;;;;;;;0.45;0.40;;;;;;;12.76;87.54;92484.25;6241178;23;20038;-92
2021/07/16 00:50:33;;;;;;;0.70;0.47;;;;;;;12.69;87.30;92471.56;6216936;23;20020;-91
2021/07/16 00:53:09;;;;;;;0.25;0.25;;;;;;;12.67;87.32;92474.47;6242106;23;20054;-92
2021/07/16 00:55:52;;;;;;;0.38;0.38;;;;;;;12.90;85.75;92496.28;6192795;23;20062;-91
2021/07/16 00:58:18;;;;;;;0.20;0.20;;;;;;;12.78;85.72;92479.50;6191144;23;20091;-91
2021/07/16 01:00:49;;;;;;;0.38;0.38;;;;;;;12.98;86.19;92513.16;6205337;22;20024;-91
2021/07/16 01:03:18;;;;;;;0.30;0.30;;;;;;;12.94;86.47;92500.91;6156336;23;20017;-91
2021/07/16 01:06:03;;;;;;;0.52;0.50;;;;;;;13.11;85.88;92527.31;6180494;23;20065;-90
2021/07/16 01:08:34;;;;;;;0.40;0.40;;;;;;;13.00;85.33;92500.50;6155747;23;20079;-90
2021/07/16 01:11:14;;;;;;;0.20;0.20;;;;;;;12.85;83.19;92470.09;6157999;23;20112;-91
2021/07/16 01:13:56;;;;;;;0.22;0.22;;;;;;;12.85;84.43;92462.22;6156170;23;20025;-91
2021/07/16 01:16:32;;;;;;;0.20;0.20;;;;;;;13.07;84.79;92494.81;6180940;23;20009;-90
2021/07/16 01:19:21;;;;;;;;;;;;;;;;;;;;;
2021/07/16 01:21:57;;;;;;;0.30;0.30;;;;;;;12.90;81.75;92446.34;6180482;23;20017;-91
2021/07/16 01:24:49;;;;;;;0.20;0.20;;;;;;;13.25;80.81;92485.19;6180873;23;20020;-91
2021/07/16 01:27:26;;;;;;;0.30;0.30;;;;;;;13.30;79.69;92479.81;6161372;23;20021;-92
2021/07/16 01:30:05;;;;;;;0.20;0.20;;;;;;;13.14;79.76;92445.22;6155614;23;20017;-91
2021/07/16 01:32:51;;;;;;;0.20;0.20;;;;;;;13.35;79.69;92471.78;6156112;23;20040;-89
2021/07/16 01:35:37;;;;;;;0.30;0.30;;;;;;;13.16;80.49;92439.69;6180181;23;20459;-91
2021/07/16 01:38:03;;;;;;;0.25;0.25;;;;;;;13.24;81.18;92462.56;6182548;23;20009;-91
2021/07/16 01:40:47;;;;;;;;;;;;;;;;;;;;;
2021/07/16 01:43:18;;;;;;;0.20;0.20;;;;;;;13.18;80.87;92461.19;6180720;23;20061;-91
2021/07/16 01:46:06;;;;;;;0.20;0.20;;;;;;;13.42;80.40;92482.66;6172292;23;20415;-91
2021/07/16 01:48:51;;;;;;;0.15;0.15;;;;;;;13.18;80.74;92448.03;6155083;23;20107;-90
2021/07/16 01:51:19;;;;;;;;;;;;;;;13.58;81.09;92506.69;6136442;23;20071;-91
2021/07/16 01:54:16;;;;;;;0.20;0.20;;;;;;;13.30;81.33;92461.41;6180826;23;19912;-91
2021/07/16 01:56:59;;;;;;;;;;;;;;;;;;;;;
2021/07/16 01:59:47;;;;;;;0.20;0.20;;;;;;;13.36;82.22;92494.38;6182566;23;20025;-91
2021/07/16 02:02:25;;;;;;;0.30;0.30;;;;;;;13.09;83.28;92461.13;6157637;23;20017;-91
2021/07/16 02:05:03;;;;;;;0.20;0.20;;;;;;;13.07;83.56;92464.06;6135258;23;20020;-93
2021/07/16 02:07:53;;;;;;;;;;;;;;;;;;;;;
2021/07/16 02:10:31;;;;;;;0.30;0.30;;;;;;;13.17;83.44;92488.53;6185017;23;20482;-92
2021/07/16 02:13:06;;;;;;;0.20;0.20;;;;;;;13.23;83.84;92487.31;6182577;23;20013;-90
2021/07/16 02:15:57;;;;;;;0.40;0.40;;;;;;;13.07;83.37;92474.56;6183068;23;20076;-91
2021/07/16 02:18:29;;;;;;;0.30;0.30;;;;;;;12.94;83.62;92441.25;6157589;23;20020;-92
2021/07/16 02:21:00;;;;;;;0.35;0.35;;;;;;;12.93;83.72;92434.47;6181893;23;20052;-92
2021/07/16 02:23:38;;;;;;;0.20;0.20;;;;;;;12.95;83.24;92437.56;6183010;23;20021;-90
2021/07/16 02:26:16;;;;;;;;;;;;;;;;;;;;;
2021/07/16 02:28:43;;;;;;;0.40;0.40;;;;;;;13.23;82.40;92466.28;6206571;23;20036;-91
2021/07/16 02:31:24;;;;;;;0.25;0.25;;;;;;;13.22;81.76;92480.53;6182777;23;20092;-91
2021/07/16 02:33:55;;;;;;;0.32;0.32;;;;;;;13.01;81.59;92441.59;6182557;23;20021;-91
2021/07/16 02:36:56;;;;;;;0.30;0.30;;;;;;;13.11;81.42;92443.97;6158223;23;20025;-90
2021/07/16 02:39:23;;;;;;;0.40;0.40;;;;;;;13.06;81.51;92430.19;6183374;23;20084;-91
2021/07/16 02:41:54;;;;;;;0.20;0.20;;;;;;;13.18;81.73;92448.81;6181878;23;20036;-91
2021/07/16 02:44:48;;;;;;;0.30;0.30;;;;;;;13.04;82.16;92421.84;6184778;23;20005;-92
2021/07/16 02:47:23;;;;;;;0.73;0.73;;;;;;;13.04;81.19;92432.38;6159135;23;20072;-90
2021/07/16 02:49:59;;;;;;;0.37;0.37;;;;;;;13.27;80.41;92456.72;6181672;23;20101;-92
2021/07/16 02:52:46;;;;;;;0.20;0.20;;;;;;;13.03;80.35;92426.31;6181893;23;20331;-92
2021/07/16 02:55:26;;;;;;;0.30;0.30;;;;;;;13.29;81.40;92457.25;6181915;23;20017;-90
2021/07/16 02:57:55;;;;;;;0.40;0.40;;;;;;;13.02;82.04;92424.78;6181896;23;20444;-91
2021/07/16 03:00:41;;;;;;;0.70;0.70;;;;;;;13.16;82.19;92453.59;6165130;23;20072;-91
2021/07/16 03:03:16;;;;;;;0.50;0.50;;;;;;;13.07;82.70;92447.50;6192515;23;20428;-91
2021/07/16 03:05:46;;;;;;;0.22;0.22;;;;;;;12.79;82.71;92407.47;6242069;23;20059;-92
2021/07/16 03:08:23;;;;;;;0.30;0.30;;;;;;;12.78;83.19;92414.59;6191860;23;20016;-91
2021/07/16 03:11:06;;;;;;;0.30;0.30;;;;;;;12.98;83.78;92459.84;6219381;23;20115;-91
2021/07/16 03:13:32;;;;;;;0.55;0.47;;;;;;;12.69;83.55;92419.78;6193087;23;20023;-92
2021/07/16 03:16:16;;;;;;;;;;;;;;;;;;;;;
2021/07/16 03:18:45;;;;;;;0.20;0.20;;;;;;;12.78;83.13;92440.88;6243594;23;20023;-92
2021/07/16 03:21:18;;;;;;;0.28;0.28;;;;;;;12.65;81.75;92426.75;6242873;23;20070;-90
2021/07/16 03:23:56;;;;;;;0.35;0.35;;;;;;;12.85;80.98;92458.81;6216243;23;20016;-91
2021/07/16 03:26:38;;;;;;;0.25;0.25;;;;;;;13.05;82.03;92463.56;6242223;23;20024;-90
2021/07/16 03:29:22;;;;;;;;;;;;;;;;;;;;;
2021/07/16 03:32:01;;;;;;;0.30;0.30;;;;;;;12.86;83.19;92463.03;6215437;23;20024;-91
2021/07/16 03:34:27;;;;;;;0.40;0.40;;;;;;;12.57;83.00;92422.22;6241473;23;20012;-90
2021/07/16 03:37:00;;;;;;;0.20;0.20;;;;;;;12.52;83.67;92422.34;6216443;23;20022;-90
2021/07/16 03:39:45;;;;;;;0.30;0.30;;;;;;;12.67;84.38;92450.06;6171077;23;20028;-91
2021/07/16 03:42:20;;;;;;;0.20;0.20;;;;;;;12.37;84.27;92406.94;6191791;23;20016;-92
2021/07/16 03:44:59;;;;;;;;;;;;;;;;;;;;;
2021/07/16 03:47:55;;;;;;;0.25;0.25;;;;;;;12.28;83.17;92399.00;6243497;23;20563;-91
2021/07/16 03:50:27;;;;;;;0.20;0.20;;;;;;;12.39;80.91;92417.91;6216214;23;20059;-89
2021/07/16 03:52:55;;;;;;;0.30;0.30;;;;;;;12.42;79.73;92409.44;6242812;23;20012;-89
2021/07/16 03:55:24;;;;;;;0.20;0.20;;;;;;;12.49;78.10;92417.66;6216531;23;20047;-90
2021/07/16 03:58:04;;;;;;;0.20;0.20;;;;;;;12.88;78.96;92472.16;6215703;23;20048;-91
2021/07/16 04:00:41;;;;;;;0.30;0.30;;;;;;;12.53;79.17;92421.25;6216164;23;20020;-89
2021/07/16 04:03:19;;;;;;;;;;;;;;;;;;;;;
2021/07/16 04:06:10;;;;;;;0.20;0.20;;;;;;;12.79;79.15;92470.53;6241559;23;20020;-90
2021/07/16 04:08:39;;;;;;;0.30;0.30;;;;;;;12.55;79.25;92434.84;6191150;23;20046;-89
2021/07/16 04:11:11;;;;;;;0.30;0.30;;;;;;;12.53;79.31;92434.38;6192615;23;20020;-90
2021/07/16 04:13:43;;;;;;;0.20;0.20;;;;;;;12.77;80.02;92460.34;6191470;23;20008;-90
2021/07/16 04:16:12;;;;;;;0.20;0.20;;;;;;;12.58;80.28;92442.13;6215862;23;20023;-91
2021/07/16 04:18:37;;;;;;;0.20;0.20;;;;;;;12.58;78.76;92433.47;6216904;23;20122;-90
2021/07/16 04:21:08;;;;;;;0.30;0.30;;;;;;;12.63;78.69;92422.84;6215933;23;20051;-91
2021/07/16 04:23:54;;;;;;;0.40;0.40;;;;;;;13.03;79.17;92484.13;6216151;23;20431;-90
2021/07/16 04:26:19;;;;;;;0.28;0.28;;;;;;;13.19;80.89;92473.22;6191761;23;20431;-91
2021/07/16 04:31:41;;;;;;;0.47;0.47;;;;;;;13.11;81.52;92462.38;6240733;23;20042;-91
2021/07/16 04:34:07;;;;;;;0.25;0.25;;;;;;;12.98;81.68;92444.84;6190678;23;20028;-91
2021/07/16 04:36:43;;;;;;;0.30;0.30;;;;;;;13.35;81.53;92500.69;6215858;23;20012;-92
2021/07/16 04:39:19;;;;;;;0.20;0.20;;;;;;;13.04;81.86;92448.13;6241514;23;20015;-90
2021/07/16 04:41:47;;;;;;;0.20;0.20;;;;;;;13.02;81.43;92443.16;6190873;23;20016;-92
2021/07/16 04:44:13;;;;;;;0.20;0.20;;;;;;;13.20;81.32;92465.06;6189897;23;20027;-91
2021/07/16 04:47:01;;;;;;;;;;;;;;;;;;;;;
2021/07/16 04:49:52;;;;;;;1.08;0.60;;;;;;;13.20;81.21;92446.66;6220323;23;20012;-91
2021/07/16 05:16:43;;;;;;;0.20;0.20;;;;;;;14.70;78.67;92489.59;5950206;24;20092;-91
2021/07/16 06:54:10;;;;;;;0.38;0.38;;;;;;;16.12;73.93;92539.78;6010601;23;20169;-90
2021/07/16 07:06:08;;;;;;;;;;;;;;;;;;;;;
2021/07/16 07:40:54;;;;;;;;;;;;;;;;;;;;;
2021/07/16 08:31:26;;;;;;;0.35;0.35;;;;;;;19.27;63.14;92491.78;6250912;22;20270;-94
2021/07/16 08:35:16;;;;;;;;;;;;;;;;;;;;;
2021/07/16 08:39:11;;;;;;;;;;;;;;;;;;;;;
2021/07/16 08:42:55;;;;;;;0.20;0.20;;;;;;;19.10;65.36;92490.19;6061101;23;20110;-94
2021/07/16 08:45:21;;;;;;;0.22;0.22;;;;;;;18.79;66.65;92482.91;6058599;23;20019;-87
2021/07/16 08:47:54;;;;;;;0.20;0.20;;;;;;;18.62;70.83;92493.75;6166807;23;20012;-86
2021/07/16 08:50:29;;;;;;;0.32;0.30;;;;;;;18.87;68.49;92495.25;6241863;23;20092;-87
2021/07/16 08:53:03;;;;;;;0.13;0.13;;;;;;;19.42;66.19;92508.06;6242335;23;20004;-85
2021/07/16 08:55:36;;;;;;;0.20;0.20;;;;;;;19.23;65.63;92548.50;6215778;23;20020;-85
2021/07/16 08:58:11;;;;;;;0.28;0.28;;;;;;;19.24;65.47;92547.41;6216367;23;20074;-85
2021/07/16 09:00:44;;;;;;;0.47;0.45;;;;;;;19.28;66.41;92517.19;6215716;23;20031;-86
2021/07/16 09:03:15;;;;;;;0.20;0.20;;;;;;;19.54;65.88;92505.31;6190021;23;20071;-85
2021/07/16 09:10:05;;;;;;;;;;;;;;;;;;;;;
2021/07/16 09:13:19;;;;;;;0.10;0.10;;;;;;;19.74;65.11;92554.78;6214322;23;20451;-95
2021/07/16 09:16:23;;;;;;;0.20;0.20;;;;;;;19.35;66.44;92504.09;6245978;23;20075;-94
2021/07/16 09:19:09;;;;;;;0.30;0.30;;;;;;;19.83;65.24;92516.69;6200676;23;20024;-95
2021/07/16 09:22:23;;;;;;;0.55;0.38;;;;;;;19.68;65.37;92520.84;6220925;23;20516;-93
2021/07/16 09:26:03;;;;;;;;;;;;;;;;;;;;;
2021/07/16 09:29:55;;;;;;;;;;;;;;;;;;;;;
2021/07/16 10:05:31;;;;;;;0.20;0.20;;;;;;;21.03;54.35;92517.09;5817343;24;20026;-94
2021/07/16 10:11:41;;;;;;;0.22;0.22;;;;;;;21.03;57.22;92524.28;5988887;23;20081;-95
2021/07/16 10:17:57;;;;;;;0.22;0.22;;;;;;;21.56;57.36;92524.56;6207595;23;20499;-93
2021/07/16 10:21:22;;;;;;;;;;;;;;;;;;;;;
2021/07/16 10:58:56;;;;;;;0.30;0.30;;;;;;;23.40;49.22;92542.16;6233395;22;20110;-79
2021/07/16 11:01:34;;;;;;;0.50;0.45;;;;;;;24.28;48.04;92541.47;6242206;22;20032;-77
2021/07/16 11:04:05;;;;;;;0.30;0.30;;;;;;;24.69;47.96;92544.06;6215307;23;20016;-76
2021/07/16 11:06:51;;;;;;;0.35;0.35;;;;;;;24.37;45.42;92538.50;6218833;23;20065;-79
2021/07/16 11:09:34;;;;;;;0.30;0.30;;;;;;;24.72;47.64;92539.88;6244983;23;20368;-78
2021/07/16 11:12:19;;;;;;;0.30;0.30;;;;;;;24.70;45.60;92542.94;6246454;22;20016;-79
2021/07/16 11:14:45;;;;;;;0.30;0.30;;;;;;;24.84;46.00;92546.84;6251491;23;20008;-79
2021/07/16 11:17:23;;;;;;;0.38;0.38;;;;;;;24.80;45.79;92543.38;6249229;23;20019;-77
2021/07/16 11:20:07;;;;;;;0.38;0.38;;;;;;;24.67;46.44;92540.25;6220711;23;20020;-77
2021/07/16 11:22:33;;;;;;;0.30;0.30;;;;;;;24.52;43.83;92542.06;6250185;22;20068;-78
2021/07/16 11:24:59;;;;;;;0.30;0.30;;;;;;;23.90;45.55;92543.44;6248784;23;20016;-77
2021/07/16 11:27:26;;;;;;;0.50;0.38;;;;;;;23.72;47.07;92536.38;6248407;23;20019;-77
2021/07/16 11:29:52;;;;;;;0.30;0.30;;;;;;;23.45;48.24;92534.56;6248121;23;20015;-77
2021/07/16 11:32:26;;;;;;;0.30;0.30;;;;;;;24.06;47.79;92529.84;6221655;23;20028;-78
2021/07/16 11:35:06;;;;;;;0.50;0.50;;;;;;;23.48;47.94;92528.50;6248383;23;20078;-78
2021/07/16 11:37:44;;;;;;;0.30;0.30;;;;;;;24.03;49.03;92530.56;6221479;23;20024;-78
2021/07/16 11:40:35;;;;;;;0.20;0.20;;;;;;;23.81;49.19;92529.59;6249082;23;20004;-77
2021/07/16 11:43:02;;;;;;;0.30;0.30;;;;;;;24.39;46.00;92524.75;6222336;23;20008;-77
2021/07/16 11:45:31;;;;;;;0.38;0.38;;;;;;;23.94;45.84;92527.44;6248964;23;20012;-78
2021/07/16 11:48:10;;;;;;;0.55;0.50;;;;;;;24.99;44.99;92520.91;6249055;23;20347;-77
2021/07/16 11:50:35;;;;;;;0.40;0.40;;;;;;;25.59;44.45;92527.69;6221259;23;20012;-78
2021/07/16 11:53:01;;;;;;;0.20;0.20;;;;;;;24.67;43.06;92524.19;6249033;23;20077;-78
2021/07/16 11:55:29;;;;;;;0.20;0.20;;;;;;;24.03;44.01;92524.47;6221341;23;20046;-76
2021/07/16 11:57:59;;;;;;;0.30;0.30;;;;;;;24.37;44.15;92516.31;6247474;23;20043;-77
2021/07/16 12:00:28;;;;;;;0.40;0.40;;;;;;;24.46;46.40;92511.41;6247202;22;20399;-76
2021/07/16 12:03:08;;;;;;;0.30;0.30;;;;;;;24.82;46.17;92504.41;6248593;23;20022;-77
2021/07/16 12:05:54;;;;;;;0.40;0.40;;;;;;;25.37;45.73;92503.50;6221642;23;20019;-78
2021/07/16 12:08:28;;;;;;;0.20;0.20;;;;;;;25.40;42.41;92500.06;6222026;23;20015;-77
2021/07/16 12:11:13;;;;;;;0.30;0.30;;;;;;;25.07;43.80;92507.19;6248317;22;20325;-77
2021/07/16 12:13:41;;;;;;;0.20;0.20;;;;;;;25.46;43.71;92495.84;6248223;23;20016;-78
2021/07/16 12:16:17;;;;;;;0.30;0.30;;;;;;;25.72;42.03;92494.00;6246652;23;20043;-78
2021/07/16 12:18:44;;;;;;;0.25;0.25;;;;;;;25.35;41.46;92503.09;6220655;23;20389;-77
2021/07/16 12:21:12;;;;;;;0.30;0.30;;;;;;;24.97;42.63;92499.88;6221357;23;20008;-78
2021/07/16 12:23:40;;;;;;;1.20;0.73;;;;;;;25.55;43.21;92492.81;6248176;23;19996;-78
2021/07/16 12:26:19;;;;;;;0.20;0.20;;;;;;;26.16;41.65;92495.59;6248483;23;20019;-78
2021/07/16 12:28:49;;;;;;;0.50;0.50;;;;;;;25.76;40.88;92497.47;6248819;23;20035;-78
2021/07/16 12:31:22;;;;;;;0.40;0.40;;;;;;;25.51;42.77;92497.41;6220718;23;20444;-78
2021/07/16 12:34:20;;;;;;;0.22;0.22;;;;;;;25.67;37.82;92499.72;6222264;23;20028;-78
2021/07/16 12:36:47;;;;;;;0.20;0.20;;;;;;;25.08;38.76;92514.09;6221765;23;20361;-78
2021/07/16 12:39:19;;;;;;;0.38;0.38;;;;;;;25.25;38.37;92498.50;6221513;23;20472;-78
2021/07/16 12:41:45;;;;;;;0.30;0.30;;;;;;;25.50;38.73;92507.34;6221230;23;20008;-77
2021/07/16 12:44:11;;;;;;;0.30;0.30;;;;;;;25.23;41.99;92506.13;6247370;23;20015;-77
2021/07/16 12:46:37;;;;;;;0.20;0.20;;;;;;;25.52;43.41;92507.00;6220849;23;20016;-77
2021/07/16 12:49:07;;;;;;;0.40;0.40;;;;;;;25.06;42.08;92512.91;6246800;23;20016;-77
2021/07/16 12:51:39;;;;;;;0.52;0.50;;;;;;;25.11;42.60;92510.66;6246816;22;20348;-78
2021/07/16 12:54:05;;;;;;;0.38;0.38;;;;;;;24.91;43.08;92509.41;6247019;23;20020;-77
2021/07/16 12:56:38;;;;;;;0.20;0.20;;;;;;;24.68;41.55;92517.72;6246706;23;20034;-77
2021/07/16 12:59:26;;;;;;;0.30;0.30;;;;;;;24.52;43.40;92507.28;6246926;23;20032;-77
2021/07/16 13:01:54;;;;;;;0.30;0.30;;;;;;;24.29;42.49;92510.91;6247249;22;20012;-78
2021/07/16 13:04:22;;;;;;;0.45;0.45;;;;;;;24.38;44.60;92507.16;6220142;23;20012;-77
2021/07/16 13:06:48;;;;;;;0.30;0.30;;;;;;;23.69;45.00;92519.16;6247434;23;20027;-76
2021/07/16 13:09:17;;;;;;;0.30;0.30;;;;;;;23.94;46.55;92510.66;6247710;23;20083;-77
2021/07/16 13:11:44;;;;;;;0.30;0.30;;;;;;;24.12;42.75;92508.88;6247239;22;20030;-78
2021/07/16 13:14:24;;;;;;;0.40;0.40;;;;;;;24.15;43.84;92504.69;6221033;23;20070;-77
2021/07/16 13:16:49;;;;;;;0.15;0.15;;;;;;;23.95;45.57;92504.16;6247543;23;20012;-78
2021/07/16 13:19:15;;;;;;;0.70;0.40;;;;;;;24.25;44.85;92502.09;6219479;23;20396;-77
2021/07/16 13:21:41;;;;;;;0.40;0.40;;;;;;;24.57;45.55;92514.97;6246823;22;20008;-78
2021/07/16 13:24:06;;;;;;;0.60;0.60;;;;;;;24.30;43.78;92523.16;6219647;23;20020;-77
2021/07/16 13:26:34;;;;;;;0.20;0.20;;;;;;;24.22;46.87;92513.53;6219964;23;20008;-77
2021/07/16 13:29:03;;;;;;;0.47;0.47;;;;;;;24.60;44.76;92514.19;6219859;23;20023;-76
2021/07/16 13:31:30;;;;;;;0.70;0.60;;;;;;;24.71;43.32;92515.03;6219798;23;20016;-76
2021/07/16 13:33:56;;;;;;;0.75;0.60;;;;;;;24.38;44.73;92512.50;6220090;23;20098;-78
2021/07/16 13:36:22;;;;;;;0.40;0.40;;;;;;;24.68;44.75;92515.03;6220387;23;20004;-77
2021/07/16 13:38:48;;;;;;;0.25;0.25;;;;;;;24.62;43.37;92516.53;6246053;23;20022;-77
2021/07/16 13:41:13;;;;;;;0.20;0.20;;;;;;;24.65;43.78;92510.41;6245332;22;20016;-77
2021/07/16 13:43:40;;;;;;;0.22;0.22;;;;;;;24.79;42.14;92509.72;6219283;23;20024;-77
2021/07/16 13:46:06;;;;;;;0.25;0.25;;;;;;;24.84;41.18;92506.69;6246213;23;20008;-78
2021/07/16 13:48:33;;;;;;;0.40;0.40;;;;;;;25.08;42.40;92506.06;6246199;23;20035;-78
2021/07/16 13:50:59;;;;;;;0.30;0.30;;;;;;;25.11;41.72;92499.19;6247813;22;20012;-77
2021/07/16 13:53:24;;;;;;;0.35;0.35;;;;;;;24.47;43.06;92503.03;6248221;23;20008;-77
2021/07/16 13:55:50;;;;;;;0.20;0.20;;;;;;;24.24;43.50;92503.22;6221713;23;20019;-78
2021/07/16 13:58:16;;;;;;;0.30;0.30;;;;;;;24.15;44.16;92504.69;6216284;23;20084;-76
2021/07/16 14:00:41;;;;;;;0.20;0.20;;;;;;;24.43;43.07;92509.47;6218449;23;20009;-78
2021/07/16 14:03:07;;;;;;;0.30;0.30;;;;;;;24.47;42.25;92511.06;6218251;23;20463;-77
2021/07/16 14:05:33;;;;;;;0.65;0.45;;;;;;;24.42;43.71;92507.94;6217647;23;20393;-76
2021/07/16 14:07:59;;;;;;;0.30;0.30;;;;;;;24.25;45.25;92512.81;6217767;23;20080;-77
2021/07/16 14:10:25;;;;;;;0.50;0.50;;;;;;;24.37;46.85;92509.06;6243733;23;20044;-77
2021/07/16 14:12:50;;;;;;;0.30;0.30;;;;;;;24.04;46.17;92509.94;6217288;23;20027;-77
2021/07/16 14:15:17;;;;;;;0.40;0.40;;;;;;;23.78;46.68;92513.56;6218522;23;20047;-78
2021/07/16 14:17:45;;;;;;;0.50;0.50;;;;;;;24.20;44.27;92513.13;6218537;23;20009;-76
2021/07/16 14:20:12;;;;;;;0.38;0.38;;;;;;;23.84;41.99;92514.75;6216801;23;20060;-77
2021/07/16 14:22:38;;;;;;;0.30;0.30;;;;;;;23.66;44.65;92522.56;6218035;23;20016;-78
2021/07/16 14:25:09;;;;;;;0.20;0.20;;;;;;;23.57;43.63;92524.75;6216973;23;20063;-78
2021/07/16 14:27:40;;;;;;;0.30;0.30;;;;;;;23.51;44.01;92520.88;6218245;23;20016;-76
2021/07/16 14:30:11;;;;;;;0.40;0.40;;;;;;;23.43;46.72;92514.69;6216962;23;20013;-77
2021/07/16 14:32:37;;;;;;;0.47;0.47;;;;;;;23.60;46.28;92516.03;6218242;23;20012;-77
2021/07/16 14:35:04;;;;;;;0.52;0.38;;;;;;;23.34;44.63;92517.66;6217843;23;20007;-76
2021/07/16 14:37:29;;;;;;;0.30;0.30;;;;;;;23.22;45.67;92521.34;6216912;23;20016;-77
2021/07/16 14:39:58;;;;;;;0.22;0.22;;;;;;;23.41;45.47;92523.06;6216529;23;20017;-78
2021/07/16 14:42:24;;;;;;;0.47;0.28;;;;;;;23.19;44.82;92523.97;6192236;23;20023;-78
2021/07/16 14:44:49;;;;;;;0.20;0.20;;;;;;;23.31;46.53;92521.06;6218034;23;20028;-78
2021/07/16 14:47:15;;;;;;;0.20;0.20;;;;;;;23.27;45.09;92517.56;6218214;23;20012;-78
2021/07/16 14:49:41;;;;;;;0.30;0.30;;;;;;;23.39;44.84;92520.00;6215752;23;20387;-77
2021/07/16 14:52:06;;;;;;;0.13;0.13;;;;;;;23.41;43.87;92520.38;6216059;23;20099;-77
2021/07/16 14:54:32;;;;;;;0.30;0.30;;;;;;;23.17;44.72;92510.19;6216841;23;20407;-77
2021/07/16 14:56:59;;;;;;;0.20;0.20;;;;;;;23.06;45.19;92518.09;6221330;23;20035;-77
2021/07/16 14:59:24;;;;;;;0.30;0.30;;;;;;;22.96;46.42;92514.13;6221620;23;20016;-77
2021/07/16 15:01:50;;;;;;;0.20;0.20;;;;;;;22.94;47.16;92526.28;6221157;23;20058;-77
2021/07/16 15:04:15;;;;;;;0.20;0.20;;;;;;;22.75;48.83;92522.63;6248183;23;20097;-78
2021/07/16 15:06:41;;;;;;;0.40;0.40;;;;;;;22.67;49.67;92526.31;6247919;23;20000;-78
2021/07/16 15:09:06;;;;;;;0.30;0.30;;;;;;;22.38;50.34;92522.47;6249023;23;20012;-76
2021/07/16 15:11:32;;;;;;;0.40;0.40;;;;;;;22.22;51.08;92523.41;6221933;23;20127;-77
2021/07/16 15:13:58;;;;;;;0.50;0.50;;;;;;;22.31;50.98;92520.47;6221370;23;20016;-77
2021/07/16 15:16:24;;;;;;;0.60;0.43;;;;;;;22.21;52.42;92524.53;6248124;23;20019;-77
2021/07/16 15:18:50;;;;;;;0.28;0.28;;;;;;;22.12;51.77;92523.97;6247020;23;20024;-77
2021/07/16 15:21:15;;;;;;;0.40;0.40;;;;;;;22.07;51.57;92524.28;6221175;23;20336;-77
2021/07/16 15:23:41;;;;;;;0.20;0.20;;;;;;;22.03;51.40;92523.44;6221271;23;20352;-77
2021/07/16 15:26:07;;;;;;;0.20;0.20;;;;;;;21.91;52.88;92532.41;6248633;23;20031;-77
2021/07/16 15:28:32;;;;;;;0.20;0.20;;;;;;;21.99;52.83;92527.94;6196954;23;20023;-77
2021/07/16 15:30:58;;;;;;;0.40;0.38;;;;;;;21.87;53.18;92526.25;6221738;23;20015;-77
2021/07/16 15:33:24;;;;;;;0.45;0.40;;;;;;;21.85;53.04;92527.72;6197450;23;20019;-77
2021/07/16 15:35:50;;;;;;;0.55;0.40;;;;;;;21.85;54.35;92525.06;6248385;23;20030;-77
2021/07/16 15:38:16;;;;;;;0.30;0.30;;;;;;;21.44;55.94;92516.75;6222157;23;20106;-77
2021/07/16 15:40:41;;;;;;;0.70;0.68;;;;;;;21.67;54.68;92520.19;6221924;23;20016;-77
2021/07/16 15:43:07;;;;;;;0.43;0.40;;;;;;;21.68;55.56;92513.72;6196100;23;20000;-76
2021/07/16 15:45:33;;;;;;;0.40;0.40;;;;;;;21.57;56.46;92512.78;6220747;23;20341;-77
2021/07/16 15:47:59;;;;;;;0.32;0.32;;;;;;;21.61;56.55;92514.38;6220409;23;20020;-77
2021/07/16 15:50:26;;;;;;;0.32;0.32;;;;;;;21.52;56.69;92516.50;6247176;22;20008;-77
2021/07/16 15:52:52;;;;;;;0.20;0.20;;;;;;;21.68;56.33;92527.03;6221115;23;20047;-77
2021/07/16 15:55:18;;;;;;;0.45;0.45;;;;;;;21.41;57.01;92523.53;6246736;23;20016;-77
2021/07/16 15:57:45;;;;;;;0.38;0.35;;;;;;;21.54;56.93;92527.56;6219902;23;20458;-77
2021/07/16 16:00:14;;;;;;;0.38;0.38;;;;;;;21.40;57.58;92529.94;6246351;23;20134;-77
2021/07/16 16:02:39;;;;;;;0.30;0.30;;;;;;;21.55;56.75;92542.44;6220279;23;20012;-77
2021/07/16 16:05:07;;;;;;;0.82;0.60;;;;;;;21.59;54.65;92539.81;6220300;23;20318;-77
2021/07/16 16:07:34;;;;;;;0.30;0.30;;;;;;;21.57;55.58;92547.41;6246526;23;20016;-77
2021/07/16 16:10:01;;;;;;;0.57;0.47;;;;;;;21.46;56.32;92549.09;6246072;23;20008;-79
2021/07/16 16:12:26;;;;;;;0.25;0.25;;;;;;;21.45;56.61;92550.22;6247296;22;20673;-78
2021/07/16 16:14:52;;;;;;;1.05;0.63;;;;;;;21.50;57.63;92550.69;6246785;23;20035;-78
2021/07/16 16:17:18;;;;;;;0.35;0.35;;;;;;;21.37;58.27;92558.06;6225497;23;20428;-80
2021/07/16 16:19:43;;;;;;;0.40;0.40;;;;;;;21.34;58.02;92564.06;6225123;23;20022;-79
2021/07/16 16:22:09;;;;;;;0.95;0.57;;;;;;;21.15;55.86;92561.41;6225404;23;20004;-80
2021/07/16 16:24:35;;;;;;;0.40;0.40;;;;;;;21.23;54.79;92565.75;6251726;23;20123;-79
2021/07/16 16:27:00;;;;;;;0.40;0.38;;;;;;;21.18;54.42;92571.34;6199252;23;20019;-78
2021/07/16 16:29:26;;;;;;;1.02;0.68;;;;;;;21.16;54.78;92558.38;6248705;23;20031;-78
2021/07/16 16:31:52;;;;;;;0.43;0.43;;;;;;;21.27;54.98;92569.25;6249206;22;20004;-76
2021/07/16 16:34:17;;;;;;;0.40;0.40;;;;;;;21.14;54.78;92565.97;6249603;23;20127;-78
2021/07/16 16:36:43;;;;;;;1.05;0.68;;;;;;;21.07;54.16;92567.72;6224051;23;20032;-77
2021/07/16 16:39:10;;;;;;;0.40;0.40;;;;;;;20.99;54.85;92574.78;6246055;23;20016;-77
2021/07/16 16:41:36;;;;;;;0.40;0.38;;;;;;;20.71;54.91;92574.94;6223785;23;20008;-78
2021/07/16 16:44:03;;;;;;;0.30;0.30;;;;;;;20.63;54.20;92576.69;6201377;23;20020;-78
2021/07/16 16:46:28;;;;;;;0.77;0.77;;;;;;;20.38;54.66;92578.75;6251841;23;20011;-77
2021/07/16 16:48:54;;;;;;;0.35;0.30;;;;;;;20.53;54.92;92569.94;6251294;23;20016;-79
2021/07/16 16:51:20;;;;;;;0.40;0.40;;;;;;;20.52;54.88;92579.06;6251423;22;20009;-80
2021/07/16 16:53:46;;;;;;;0.22;0.22;;;;;;;20.50;55.01;92573.31;6226246;23;20359;-78
2021/07/16 16:56:12;;;;;;;0.40;0.40;;;;;;;20.50;54.67;92575.97;6223225;23;20012;-79
2021/07/16 16:58:38;;;;;;;0.45;0.45;;;;;;;20.57;55.44;92580.72;6224131;23;20019;-79
2021/07/16 17:01:05;;;;;;;0.30;0.30;;;;;;;20.67;55.52;92584.72;6226770;23;20030;-79
2021/07/16 17:03:31;;;;;;;0.63;0.45;;;;;;;20.64;54.71;92585.41;6251933;23;20024;-80
2021/07/16 17:05:56;;;;;;;0.88;0.70;;;;;;;20.54;54.66;92595.44;6196587;23;20070;-78
2021/07/16 17:08:22;;;;;;;0.30;0.30;;;;;;;20.55;54.43;92589.00;6247456;23;20035;-79
2021/07/16 17:10:49;;;;;;;0.75;0.47;;;;;;;20.56;54.42;92595.09;6245101;22;20340;-79
2021/07/16 17:13:16;;;;;;;0.60;0.60;;;;;;;20.39;54.79;92602.31;6247402;23;20035;-78
2021/07/16 17:15:42;;;;;;;0.55;0.52;;;;;;;20.24;56.07;92611.06;6252230;23;20016;-78
2021/07/16 17:18:09;;;;;;;0.60;0.60;;;;;;;20.24;56.60;92615.59;6256640;23;20007;-77
2021/07/16 17:20:34;;;;;;;0.35;0.30;;;;;;;20.17;57.07;92614.34;6225134;22;20034;-77
2021/07/16 17:23:00;;;;;;;0.40;0.40;;;;;;;20.47;57.45;92613.91;6197514;23;20095;-79
2021/07/16 17:25:27;;;;;;;0.47;0.47;;;;;;;20.45;56.85;92621.44;6218432;23;20352;-76
2021/07/16 17:27:52;;;;;;;0.30;0.30;;;;;;;20.42;59.89;92616.78;6254466;23;20435;-77